sensor_id;sensor_type;location;lat;lon;timestamp;P1;durP1;ratioP1;P2;durP2;ratioP2
62102;SDS011;48077;48.104;11.702;2023-03-17T00:00:49;9.77;;;8.85;;
62102;SDS011;48077;48.104;11.702;2023-03-17T00:03:18;9.88;;;9.10;;
62102;SDS011;48077;48.104;11.702;2023-03-17T00:05:47;11.73;;;10.70;;
62102;SDS011;48077;48.104;11.702;2023-03-17T00:08:44;12.40;;;10.13;;
62102;SDS011;48077;48.104;11.702;2023-03-17T00:11:00;13.60;;;11.43;;
62102;SDS011;48077;48.104;11.702;2023-03-17T00:13:24;9.93;;;9.10;;
62102;SDS011;48077;48.104;11.702;2023-03-17T00:15:52;14.18;;;11.05;;
62102;SDS011;48077;48.104;11.702;2023-03-17T00:18:18;12.15;;;10.73;;
62102;SDS011;48077;48.104;11.702;2023-03-17T00:20:43;11.30;;;10.32;;
62102;SDS011;48077;48.104;11.702;2023-03-17T00:23:08;10.15;;;9.18;;
62102;SDS011;48077;48.104;11.702;2023-03-17T00:25:37;10.48;;;9.48;;
62102;SDS011;48077;48.104;11.702;2023-03-17T00:28:05;9.82;;;8.85;;
62102;SDS011;48077;48.104;11.702;2023-03-17T00:30:32;11.23;;;10.18;;
62102;SDS011;48077;48.104;11.702;2023-03-17T00:32:56;12.13;;;10.90;;
62102;SDS011;48077;48.104;11.702;2023-03-17T00:35:24;11.52;;;10.38;;
62102;SDS011;48077;48.104;11.702;2023-03-17T00:37:51;11.43;;;10.25;;
62102;SDS011;48077;48.104;11.702;2023-03-17T00:40:18;13.18;;;10.55;;
62102;SDS011;48077;48.104;11.702;2023-03-17T00:42:43;11.93;;;11.00;;
62102;SDS011;48077;48.104;11.702;2023-03-17T00:45:07;11.82;;;10.80;;
62102;SDS011;48077;48.104;11.702;2023-03-17T00:47:32;12.32;;;10.90;;
62102;SDS011;48077;48.104;11.702;2023-03-17T00:49:56;11.65;;;10.60;;
62102;SDS011;48077;48.104;11.702;2023-03-17T00:52:19;12.73;;;10.80;;
62102;SDS011;48077;48.104;11.702;2023-03-17T00:54:42;11.40;;;10.35;;
62102;SDS011;48077;48.104;11.702;2023-03-17T00:57:07;11.75;;;10.68;;
62102;SDS011;48077;48.104;11.702;2023-03-17T00:59:37;10.45;;;9.65;;
62102;SDS011;48077;48.104;11.702;2023-03-17T01:02:02;12.45;;;11.32;;
62102;SDS011;48077;48.104;11.702;2023-03-17T01:04:25;12.95;;;11.80;;
62102;SDS011;48077;48.104;11.702;2023-03-17T01:06:49;13.30;;;11.80;;
62102;SDS011;48077;48.104;11.702;2023-03-17T01:09:13;13.05;;;11.77;;
62102;SDS011;48077;48.104;11.702;2023-03-17T01:11:38;15.30;;;13.98;;
62102;SDS011;48077;48.104;11.702;2023-03-17T01:14:01;12.63;;;11.52;;
62102;SDS011;48077;48.104;11.702;2023-03-17T01:16:25;13.00;;;11.85;;
62102;SDS011;48077;48.104;11.702;2023-03-17T01:18:50;14.70;;;13.40;;
62102;SDS011;48077;48.104;11.702;2023-03-17T01:21:13;13.50;;;12.30;;
62102;SDS011;48077;48.104;11.702;2023-03-17T01:23:37;12.70;;;11.60;;
62102;SDS011;48077;48.104;11.702;2023-03-17T01:26:00;12.85;;;11.80;;
62102;SDS011;48077;48.104;11.702;2023-03-17T01:28:24;13.32;;;12.15;;
62102;SDS011;48077;48.104;11.702;2023-03-17T01:30:47;12.48;;;11.40;;
62102;SDS011;48077;48.104;11.702;2023-03-17T01:33:12;11.00;;;10.15;;
62102;SDS011;48077;48.104;11.702;2023-03-17T01:35:36;13.68;;;12.45;;
62102;SDS011;48077;48.104;11.702;2023-03-17T01:38:01;12.75;;;11.52;;
62102;SDS011;48077;48.104;11.702;2023-03-17T01:40:29;11.98;;;11.00;;
62102;SDS011;48077;48.104;11.702;2023-03-17T01:48:28;16.88;;;15.43;;
62102;SDS011;48077;48.104;11.702;2023-03-17T01:50:59;15.73;;;14.40;;
62102;SDS011;48077;48.104;11.702;2023-03-17T01:53:23;15.00;;;13.65;;
62102;SDS011;48077;48.104;11.702;2023-03-17T01:55:47;15.93;;;14.60;;
62102;SDS011;48077;48.104;11.702;2023-03-17T01:58:13;14.60;;;13.30;;
62102;SDS011;48077;48.104;11.702;2023-03-17T02:00:39;15.05;;;13.70;;
62102;SDS011;48077;48.104;11.702;2023-03-17T02:03:02;14.65;;;13.43;;
62102;SDS011;48077;48.104;11.702;2023-03-17T02:05:28;13.95;;;12.88;;
62102;SDS011;48077;48.104;11.702;2023-03-17T02:07:53;14.60;;;13.40;;
62102;SDS011;48077;48.104;11.702;2023-03-17T02:10:18;14.63;;;13.23;;
62102;SDS011;48077;48.104;11.702;2023-03-17T02:12:43;14.10;;;12.98;;
62102;SDS011;48077;48.104;11.702;2023-03-17T02:15:08;16.23;;;14.50;;
62102;SDS011;48077;48.104;11.702;2023-03-17T02:17:32;14.10;;;12.95;;
62102;SDS011;48077;48.104;11.702;2023-03-17T02:20:08;13.63;;;12.55;;
62102;SDS011;48077;48.104;11.702;2023-03-17T02:22:36;14.52;;;13.45;;
62102;SDS011;48077;48.104;11.702;2023-03-17T02:25:00;13.93;;;12.80;;
62102;SDS011;48077;48.104;11.702;2023-03-17T02:27:31;15.30;;;14.00;;
62102;SDS011;48077;48.104;11.702;2023-03-17T02:29:57;13.90;;;12.88;;
62102;SDS011;48077;48.104;11.702;2023-03-17T02:32:21;16.58;;;15.10;;
62102;SDS011;48077;48.104;11.702;2023-03-17T02:34:45;15.25;;;14.00;;
62102;SDS011;48077;48.104;11.702;2023-03-17T02:37:10;18.40;;;16.90;;
62102;SDS011;48077;48.104;11.702;2023-03-17T02:39:33;16.55;;;15.02;;
62102;SDS011;48077;48.104;11.702;2023-03-17T02:41:58;13.70;;;12.60;;
62102;SDS011;48077;48.104;11.702;2023-03-17T02:44:21;15.32;;;14.18;;
62102;SDS011;48077;48.104;11.702;2023-03-17T02:46:45;16.58;;;14.95;;
62102;SDS011;48077;48.104;11.702;2023-03-17T02:49:08;18.02;;;16.27;;
62102;SDS011;48077;48.104;11.702;2023-03-17T02:51:33;17.80;;;16.45;;
62102;SDS011;48077;48.104;11.702;2023-03-17T02:53:57;18.73;;;17.33;;
62102;SDS011;48077;48.104;11.702;2023-03-17T02:56:20;18.00;;;15.23;;
62102;SDS011;48077;48.104;11.702;2023-03-17T02:58:44;15.77;;;14.50;;
62102;SDS011;48077;48.104;11.702;2023-03-17T03:01:07;16.35;;;14.90;;
62102;SDS011;48077;48.104;11.702;2023-03-17T03:03:31;15.25;;;14.10;;
62102;SDS011;48077;48.104;11.702;2023-03-17T03:05:54;14.73;;;13.63;;
62102;SDS011;48077;48.104;11.702;2023-03-17T03:08:20;16.35;;;14.88;;
62102;SDS011;48077;48.104;11.702;2023-03-17T03:10:44;15.30;;;14.02;;
62102;SDS011;48077;48.104;11.702;2023-03-17T03:13:07;14.95;;;13.82;;
62102;SDS011;48077;48.104;11.702;2023-03-17T03:15:31;15.90;;;14.48;;
62102;SDS011;48077;48.104;11.702;2023-03-17T03:17:54;15.02;;;13.88;;
62102;SDS011;48077;48.104;11.702;2023-03-17T03:20:18;17.58;;;15.98;;
62102;SDS011;48077;48.104;11.702;2023-03-17T03:22:42;15.90;;;14.60;;
62102;SDS011;48077;48.104;11.702;2023-03-17T03:25:08;15.93;;;14.65;;
62102;SDS011;48077;48.104;11.702;2023-03-17T03:27:32;14.30;;;13.10;;
62102;SDS011;48077;48.104;11.702;2023-03-17T03:29:55;15.52;;;14.13;;
62102;SDS011;48077;48.104;11.702;2023-03-17T03:32:18;14.70;;;13.27;;
62102;SDS011;48077;48.104;11.702;2023-03-17T03:34:42;15.57;;;14.40;;
62102;SDS011;48077;48.104;11.702;2023-03-17T03:37:05;14.93;;;13.75;;
62102;SDS011;48077;48.104;11.702;2023-03-17T03:39:28;15.73;;;14.38;;
62102;SDS011;48077;48.104;11.702;2023-03-17T03:41:52;14.45;;;13.23;;
62102;SDS011;48077;48.104;11.702;2023-03-17T03:44:19;16.30;;;14.98;;
62102;SDS011;48077;48.104;11.702;2023-03-17T03:46:42;14.45;;;13.18;;
62102;SDS011;48077;48.104;11.702;2023-03-17T03:49:06;14.48;;;13.23;;
62102;SDS011;48077;48.104;11.702;2023-03-17T03:51:29;15.25;;;13.85;;
62102;SDS011;48077;48.104;11.702;2023-03-17T03:53:53;14.93;;;13.57;;
62102;SDS011;48077;48.104;11.702;2023-03-17T03:56:16;14.00;;;12.60;;
62102;SDS011;48077;48.104;11.702;2023-03-17T03:58:39;14.95;;;13.70;;
62102;SDS011;48077;48.104;11.702;2023-03-17T04:01:04;14.23;;;12.95;;
62102;SDS011;48077;48.104;11.702;2023-03-17T04:03:29;14.82;;;13.43;;
62102;SDS011;48077;48.104;11.702;2023-03-17T04:05:52;14.02;;;12.80;;
62102;SDS011;48077;48.104;11.702;2023-03-17T04:08:16;14.68;;;13.07;;
62102;SDS011;48077;48.104;11.702;2023-03-17T04:10:39;13.63;;;12.45;;
62102;SDS011;48077;48.104;11.702;2023-03-17T04:13:03;13.93;;;12.68;;
62102;SDS011;48077;48.104;11.702;2023-03-17T04:15:26;14.75;;;13.32;;
62102;SDS011;48077;48.104;11.702;2023-03-17T04:17:49;14.07;;;12.85;;
62102;SDS011;48077;48.104;11.702;2023-03-17T04:20:14;13.02;;;11.77;;
62102;SDS011;48077;48.104;11.702;2023-03-17T04:22:39;13.07;;;12.05;;
62102;SDS011;48077;48.104;11.702;2023-03-17T04:25:04;13.73;;;12.60;;
62102;SDS011;48077;48.104;11.702;2023-03-17T04:27:27;14.32;;;12.90;;
62102;SDS011;48077;48.104;11.702;2023-03-17T04:29:51;13.48;;;12.43;;
62102;SDS011;48077;48.104;11.702;2023-03-17T04:32:14;15.70;;;14.32;;
62102;SDS011;48077;48.104;11.702;2023-03-17T04:34:38;13.57;;;12.50;;
62102;SDS011;48077;48.104;11.702;2023-03-17T04:37:02;13.43;;;12.27;;
62102;SDS011;48077;48.104;11.702;2023-03-17T04:39:26;13.70;;;12.27;;
62102;SDS011;48077;48.104;11.702;2023-03-17T04:41:49;13.50;;;12.50;;
62102;SDS011;48077;48.104;11.702;2023-03-17T04:44:12;14.68;;;13.07;;
62102;SDS011;48077;48.104;11.702;2023-03-17T04:46:36;13.70;;;12.50;;
62102;SDS011;48077;48.104;11.702;2023-03-17T04:49:00;11.18;;;10.23;;
62102;SDS011;48077;48.104;11.702;2023-03-17T04:51:23;12.90;;;11.70;;
62102;SDS011;48077;48.104;11.702;2023-03-17T04:53:47;13.75;;;12.13;;
62102;SDS011;48077;48.104;11.702;2023-03-17T04:56:10;13.15;;;11.75;;
62102;SDS011;48077;48.104;11.702;2023-03-17T04:58:34;12.35;;;11.10;;
62102;SDS011;48077;48.104;11.702;2023-03-17T05:00:57;13.18;;;12.02;;
62102;SDS011;48077;48.104;11.702;2023-03-17T05:03:21;12.18;;;11.00;;
62102;SDS011;48077;48.104;11.702;2023-03-17T05:05:44;12.88;;;11.73;;
62102;SDS011;48077;48.104;11.702;2023-03-17T05:08:09;12.88;;;10.63;;
62102;SDS011;48077;48.104;11.702;2023-03-17T05:10:32;10.77;;;9.85;;
62102;SDS011;48077;48.104;11.702;2023-03-17T05:12:56;11.48;;;10.50;;
62102;SDS011;48077;48.104;11.702;2023-03-17T05:15:19;12.32;;;11.05;;
62102;SDS011;48077;48.104;11.702;2023-03-17T05:17:43;12.25;;;11.20;;
62102;SDS011;48077;48.104;11.702;2023-03-17T05:20:07;14.77;;;12.30;;
62102;SDS011;48077;48.104;11.702;2023-03-17T05:22:31;12.95;;;10.63;;
62102;SDS011;48077;48.104;11.702;2023-03-17T05:24:54;11.63;;;10.43;;
62102;SDS011;48077;48.104;11.702;2023-03-17T05:27:18;11.93;;;10.20;;
62102;SDS011;48077;48.104;11.702;2023-03-17T05:29:41;11.85;;;10.73;;
62102;SDS011;48077;48.104;11.702;2023-03-17T05:32:04;13.57;;;11.18;;
62102;SDS011;48077;48.104;11.702;2023-03-17T05:34:28;12.48;;;11.20;;
62102;SDS011;48077;48.104;11.702;2023-03-17T05:36:54;13.07;;;11.77;;
62102;SDS011;48077;48.104;11.702;2023-03-17T05:39:17;17.92;;;12.20;;
62102;SDS011;48077;48.104;11.702;2023-03-17T05:41:40;11.98;;;10.85;;
62102;SDS011;48077;48.104;11.702;2023-03-17T05:44:04;11.82;;;10.70;;
62102;SDS011;48077;48.104;11.702;2023-03-17T05:46:27;11.63;;;10.63;;
62102;SDS011;48077;48.104;11.702;2023-03-17T05:48:51;13.30;;;11.13;;
62102;SDS011;48077;48.104;11.702;2023-03-17T05:51:16;11.90;;;10.80;;
62102;SDS011;48077;48.104;11.702;2023-03-17T05:53:39;12.48;;;11.52;;
62102;SDS011;48077;48.104;11.702;2023-03-17T05:56:03;11.57;;;10.45;;
62102;SDS011;48077;48.104;11.702;2023-03-17T05:58:28;11.63;;;10.63;;
62102;SDS011;48077;48.104;11.702;2023-03-17T06:00:52;11.82;;;10.80;;
62102;SDS011;48077;48.104;11.702;2023-03-17T06:03:15;15.73;;;12.32;;
62102;SDS011;48077;48.104;11.702;2023-03-17T06:05:38;12.70;;;11.52;;
62102;SDS011;48077;48.104;11.702;2023-03-17T06:08:02;14.25;;;10.77;;
62102;SDS011;48077;48.104;11.702;2023-03-17T06:10:27;14.13;;;11.73;;
62102;SDS011;48077;48.104;11.702;2023-03-17T06:12:51;12.13;;;10.98;;
62102;SDS011;48077;48.104;11.702;2023-03-17T06:15:14;11.75;;;10.40;;
62102;SDS011;48077;48.104;11.702;2023-03-17T06:17:38;11.43;;;9.98;;
62102;SDS011;48077;48.104;11.702;2023-03-17T06:20:03;10.95;;;8.63;;
62102;SDS011;48077;48.104;11.702;2023-03-17T06:22:27;9.50;;;8.48;;
62102;SDS011;48077;48.104;11.702;2023-03-17T06:24:50;9.88;;;8.93;;
62102;SDS011;48077;48.104;11.702;2023-03-17T06:27:15;11.93;;;10.27;;
62102;SDS011;48077;48.104;11.702;2023-03-17T06:29:38;10.90;;;9.75;;
62102;SDS011;48077;48.104;11.702;2023-03-17T06:32:02;11.65;;;8.50;;
62102;SDS011;48077;48.104;11.702;2023-03-17T06:34:26;8.57;;;7.32;;
62102;SDS011;48077;48.104;11.702;2023-03-17T06:36:52;8.68;;;7.82;;
62102;SDS011;48077;48.104;11.702;2023-03-17T06:39:15;8.80;;;7.80;;
62102;SDS011;48077;48.104;11.702;2023-03-17T06:41:40;8.45;;;7.07;;
62102;SDS011;48077;48.104;11.702;2023-03-17T06:44:03;8.45;;;6.22;;
62102;SDS011;48077;48.104;11.702;2023-03-17T06:46:27;10.98;;;7.28;;
62102;SDS011;48077;48.104;11.702;2023-03-17T06:48:50;12.30;;;7.78;;
62102;SDS011;48077;48.104;11.702;2023-03-17T06:51:14;10.25;;;6.72;;
62102;SDS011;48077;48.104;11.702;2023-03-17T06:53:37;10.85;;;7.25;;
62102;SDS011;48077;48.104;11.702;2023-03-17T06:56:01;7.93;;;6.05;;
62102;SDS011;48077;48.104;11.702;2023-03-17T06:58:26;7.50;;;5.50;;
62102;SDS011;48077;48.104;11.702;2023-03-17T07:00:50;8.38;;;6.40;;
62102;SDS011;48077;48.104;11.702;2023-03-17T07:03:15;9.55;;;6.18;;
62102;SDS011;48077;48.104;11.702;2023-03-17T07:05:39;6.85;;;5.63;;
62102;SDS011;48077;48.104;11.702;2023-03-17T07:08:02;7.85;;;5.45;;
62102;SDS011;48077;48.104;11.702;2023-03-17T07:10:26;9.07;;;5.25;;
62102;SDS011;48077;48.104;11.702;2023-03-17T07:12:52;7.07;;;5.18;;
62102;SDS011;48077;48.104;11.702;2023-03-17T07:15:15;7.60;;;4.70;;
62102;SDS011;48077;48.104;11.702;2023-03-17T07:17:40;7.82;;;5.50;;
62102;SDS011;48077;48.104;11.702;2023-03-17T07:20:04;7.65;;;4.93;;
62102;SDS011;48077;48.104;11.702;2023-03-17T07:22:28;6.78;;;4.22;;
62102;SDS011;48077;48.104;11.702;2023-03-17T07:24:51;7.05;;;4.47;;
62102;SDS011;48077;48.104;11.702;2023-03-17T07:27:15;6.40;;;4.88;;
62102;SDS011;48077;48.104;11.702;2023-03-17T07:29:38;7.03;;;4.15;;
62102;SDS011;48077;48.104;11.702;2023-03-17T07:32:01;8.18;;;4.57;;
62102;SDS011;48077;48.104;11.702;2023-03-17T07:34:28;5.07;;;4.20;;
62102;SDS011;48077;48.104;11.702;2023-03-17T07:36:51;8.75;;;3.72;;
62102;SDS011;48077;48.104;11.702;2023-03-17T07:39:15;7.82;;;4.15;;
62102;SDS011;48077;48.104;11.702;2023-03-17T07:41:39;7.82;;;4.20;;
62102;SDS011;48077;48.104;11.702;2023-03-17T07:44:03;7.60;;;3.55;;
62102;SDS011;48077;48.104;11.702;2023-03-17T07:46:26;7.05;;;3.92;;
62102;SDS011;48077;48.104;11.702;2023-03-17T07:48:52;8.38;;;3.88;;
62102;SDS011;48077;48.104;11.702;2023-03-17T07:51:16;9.70;;;3.80;;
62102;SDS011;48077;48.104;11.702;2023-03-17T07:53:43;7.88;;;4.35;;
62102;SDS011;48077;48.104;11.702;2023-03-17T07:56:08;6.72;;;3.65;;
62102;SDS011;48077;48.104;11.702;2023-03-17T07:58:31;6.13;;;3.28;;
62102;SDS011;48077;48.104;11.702;2023-03-17T08:00:55;7.68;;;3.42;;
62102;SDS011;48077;48.104;11.702;2023-03-17T08:03:19;6.45;;;2.90;;
62102;SDS011;48077;48.104;11.702;2023-03-17T08:05:43;7.30;;;3.47;;
62102;SDS011;48077;48.104;11.702;2023-03-17T08:08:06;5.82;;;2.90;;
62102;SDS011;48077;48.104;11.702;2023-03-17T08:10:30;7.78;;;3.13;;
62102;SDS011;48077;48.104;11.702;2023-03-17T08:12:56;4.35;;;2.55;;
62102;SDS011;48077;48.104;11.702;2023-03-17T08:15:19;9.27;;;3.35;;
62102;SDS011;48077;48.104;11.702;2023-03-17T08:17:44;5.88;;;2.45;;
62102;SDS011;48077;48.104;11.702;2023-03-17T08:20:07;5.40;;;2.67;;
62102;SDS011;48077;48.104;11.702;2023-03-17T08:22:39;4.35;;;2.67;;
62102;SDS011;48077;48.104;11.702;2023-03-17T08:25:08;7.53;;;2.83;;
62102;SDS011;48077;48.104;11.702;2023-03-17T08:27:33;6.63;;;2.83;;
62102;SDS011;48077;48.104;11.702;2023-03-17T08:29:59;4.78;;;2.67;;
62102;SDS011;48077;48.104;11.702;2023-03-17T08:32:24;5.65;;;3.05;;
62102;SDS011;48077;48.104;11.702;2023-03-17T08:34:51;5.18;;;2.40;;
62102;SDS011;48077;48.104;11.702;2023-03-17T08:37:15;7.78;;;3.20;;
62102;SDS011;48077;48.104;11.702;2023-03-17T08:39:39;6.10;;;2.90;;
62102;SDS011;48077;48.104;11.702;2023-03-17T08:42:03;8.05;;;3.10;;
62102;SDS011;48077;48.104;11.702;2023-03-17T08:44:26;3.88;;;2.20;;
62102;SDS011;48077;48.104;11.702;2023-03-17T08:46:50;5.95;;;2.42;;
62102;SDS011;48077;48.104;11.702;2023-03-17T08:49:14;7.32;;;3.33;;
62102;SDS011;48077;48.104;11.702;2023-03-17T08:51:38;6.25;;;2.78;;
62102;SDS011;48077;48.104;11.702;2023-03-17T08:54:02;5.55;;;2.50;;
62102;SDS011;48077;48.104;11.702;2023-03-17T08:56:27;8.35;;;3.15;;
62102;SDS011;48077;48.104;11.702;2023-03-17T08:58:51;5.13;;;2.47;;
62102;SDS011;48077;48.104;11.702;2023-03-17T09:01:18;4.22;;;2.17;;
62102;SDS011;48077;48.104;11.702;2023-03-17T09:03:43;6.40;;;2.30;;
62102;SDS011;48077;48.104;11.702;2023-03-17T09:06:07;4.45;;;2.20;;
62102;SDS011;48077;48.104;11.702;2023-03-17T09:08:33;4.10;;;1.83;;
62102;SDS011;48077;48.104;11.702;2023-03-17T09:10:57;6.05;;;2.03;;
62102;SDS011;48077;48.104;11.702;2023-03-17T09:13:21;4.55;;;2.00;;
62102;SDS011;48077;48.104;11.702;2023-03-17T09:15:44;3.17;;;1.60;;
62102;SDS011;48077;48.104;11.702;2023-03-17T09:18:08;5.47;;;2.10;;
62102;SDS011;48077;48.104;11.702;2023-03-17T09:20:32;5.90;;;2.00;;
62102;SDS011;48077;48.104;11.702;2023-03-17T09:22:56;3.17;;;1.50;;
62102;SDS011;48077;48.104;11.702;2023-03-17T09:25:20;2.65;;;1.48;;
62102;SDS011;48077;48.104;11.702;2023-03-17T09:27:43;6.82;;;2.15;;
62102;SDS011;48077;48.104;11.702;2023-03-17T09:30:07;8.43;;;1.80;;
62102;SDS011;48077;48.104;11.702;2023-03-17T09:32:32;6.35;;;2.17;;
62102;SDS011;48077;48.104;11.702;2023-03-17T09:34:56;7.15;;;2.22;;
62102;SDS011;48077;48.104;11.702;2023-03-17T09:37:19;6.57;;;2.42;;
62102;SDS011;48077;48.104;11.702;2023-03-17T09:39:43;5.40;;;2.00;;
62102;SDS011;48077;48.104;11.702;2023-03-17T09:45:04;6.10;;;2.38;;
62102;SDS011;48077;48.104;11.702;2023-03-17T09:53:18;3.80;;;1.63;;
62102;SDS011;48077;48.104;11.702;2023-03-17T09:55:44;3.15;;;1.40;;
62102;SDS011;48077;48.104;11.702;2023-03-17T09:58:12;5.55;;;2.33;;
62102;SDS011;48077;48.104;11.702;2023-03-17T10:00:35;4.60;;;1.88;;
62102;SDS011;48077;48.104;11.702;2023-03-17T10:03:00;3.28;;;1.30;;
62102;SDS011;48077;48.104;11.702;2023-03-17T10:10:46;4.07;;;1.63;;
62102;SDS011;48077;48.104;11.702;2023-03-17T10:13:21;3.20;;;1.45;;
62102;SDS011;48077;48.104;11.702;2023-03-17T10:16:13;4.22;;;1.75;;
62102;SDS011;48077;48.104;11.702;2023-03-17T10:18:50;5.30;;;1.48;;
62102;SDS011;48077;48.104;11.702;2023-03-17T10:23:47;3.53;;;1.65;;
62102;SDS011;48077;48.104;11.702;2023-03-17T10:28:51;5.97;;;1.83;;
62102;SDS011;48077;48.104;11.702;2023-03-17T10:31:16;2.53;;;1.50;;
62102;SDS011;48077;48.104;11.702;2023-03-17T10:33:47;4.88;;;1.50;;
62102;SDS011;48077;48.104;11.702;2023-03-17T10:36:14;5.13;;;1.77;;
62102;SDS011;48077;48.104;11.702;2023-03-17T10:38:39;4.60;;;1.63;;
62102;SDS011;48077;48.104;11.702;2023-03-17T10:41:07;4.22;;;1.70;;
62102;SDS011;48077;48.104;11.702;2023-03-17T10:43:41;5.45;;;1.88;;
62102;SDS011;48077;48.104;11.702;2023-03-17T10:46:15;2.47;;;1.25;;
62102;SDS011;48077;48.104;11.702;2023-03-17T10:48:48;3.40;;;1.38;;
62102;SDS011;48077;48.104;11.702;2023-03-17T10:51:17;3.72;;;1.30;;
62102;SDS011;48077;48.104;11.702;2023-03-17T10:53:44;3.83;;;1.85;;
62102;SDS011;48077;48.104;11.702;2023-03-17T10:56:08;2.90;;;1.52;;
62102;SDS011;48077;48.104;11.702;2023-03-17T10:58:45;6.15;;;1.75;;
62102;SDS011;48077;48.104;11.702;2023-03-17T11:01:21;6.32;;;1.80;;
62102;SDS011;48077;48.104;11.702;2023-03-17T11:03:51;3.22;;;1.55;;
62102;SDS011;48077;48.104;11.702;2023-03-17T11:06:18;9.20;;;3.05;;
62102;SDS011;48077;48.104;11.702;2023-03-17T11:08:52;3.25;;;1.38;;
62102;SDS011;48077;48.104;11.702;2023-03-17T11:11:27;3.08;;;1.70;;
62102;SDS011;48077;48.104;11.702;2023-03-17T11:14:04;4.82;;;1.85;;
62102;SDS011;48077;48.104;11.702;2023-03-17T11:16:39;5.97;;;1.87;;
62102;SDS011;48077;48.104;11.702;2023-03-17T11:19:10;3.13;;;1.48;;
62102;SDS011;48077;48.104;11.702;2023-03-17T11:24:15;2.28;;;1.30;;
62102;SDS011;48077;48.104;11.702;2023-03-17T11:26:54;4.28;;;1.80;;
62102;SDS011;48077;48.104;11.702;2023-03-17T11:29:38;4.70;;;1.27;;
62102;SDS011;48077;48.104;11.702;2023-03-17T11:32:23;4.03;;;1.65;;
62102;SDS011;48077;48.104;11.702;2023-03-17T11:35:02;5.32;;;1.65;;
62102;SDS011;48077;48.104;11.702;2023-03-17T11:38:03;3.20;;;1.45;;
62102;SDS011;48077;48.104;11.702;2023-03-17T11:40:43;2.40;;;1.20;;
62102;SDS011;48077;48.104;11.702;2023-03-17T11:43:28;4.05;;;1.85;;
62102;SDS011;48077;48.104;11.702;2023-03-17T11:46:06;8.02;;;1.60;;
62102;SDS011;48077;48.104;11.702;2023-03-17T11:48:54;1.67;;;1.20;;
62102;SDS011;48077;48.104;11.702;2023-03-17T11:51:45;2.38;;;1.30;;
62102;SDS011;48077;48.104;11.702;2023-03-17T11:57:22;6.65;;;2.60;;
62102;SDS011;48077;48.104;11.702;2023-03-17T11:59:51;1.98;;;1.20;;
62102;SDS011;48077;48.104;11.702;2023-03-17T12:05:04;4.60;;;1.77;;
62102;SDS011;48077;48.104;11.702;2023-03-17T12:07:39;5.55;;;2.03;;
62102;SDS011;48077;48.104;11.702;2023-03-17T12:10:29;4.78;;;1.73;;
62102;SDS011;48077;48.104;11.702;2023-03-17T12:13:02;2.80;;;1.70;;
62102;SDS011;48077;48.104;11.702;2023-03-17T12:15:36;5.20;;;1.98;;
62102;SDS011;48077;48.104;11.702;2023-03-17T12:20:54;7.95;;;1.88;;
62102;SDS011;48077;48.104;11.702;2023-03-17T12:23:27;3.65;;;1.40;;
62102;SDS011;48077;48.104;11.702;2023-03-17T12:26:00;5.40;;;1.77;;
62102;SDS011;48077;48.104;11.702;2023-03-17T12:28:31;5.43;;;1.92;;
62102;SDS011;48077;48.104;11.702;2023-03-17T12:31:08;4.53;;;1.95;;
62102;SDS011;48077;48.104;11.702;2023-03-17T12:33:42;3.42;;;1.55;;
62102;SDS011;48077;48.104;11.702;2023-03-17T12:36:10;3.83;;;1.92;;
62102;SDS011;48077;48.104;11.702;2023-03-17T12:38:39;3.35;;;1.95;;
62102;SDS011;48077;48.104;11.702;2023-03-17T12:44:53;3.08;;;1.40;;
62102;SDS011;48077;48.104;11.702;2023-03-17T12:52:30;5.32;;;2.03;;
62102;SDS011;48077;48.104;11.702;2023-03-17T12:55:08;3.42;;;1.75;;
62102;SDS011;48077;48.104;11.702;2023-03-17T12:57:38;4.15;;;1.70;;
62102;SDS011;48077;48.104;11.702;2023-03-17T13:02:43;3.08;;;1.40;;
62102;SDS011;48077;48.104;11.702;2023-03-17T13:05:14;3.13;;;1.50;;
62102;SDS011;48077;48.104;11.702;2023-03-17T13:07:50;2.88;;;1.55;;
62102;SDS011;48077;48.104;11.702;2023-03-17T13:15:58;2.55;;;1.45;;
62102;SDS011;48077;48.104;11.702;2023-03-17T13:26:11;7.07;;;2.45;;
62102;SDS011;48077;48.104;11.702;2023-03-17T13:28:48;2.92;;;1.45;;
62102;SDS011;48077;48.104;11.702;2023-03-17T13:33:56;3.75;;;1.52;;
62102;SDS011;48077;48.104;11.702;2023-03-17T13:36:53;4.00;;;1.42;;
62102;SDS011;48077;48.104;11.702;2023-03-17T14:01:40;4.20;;;1.75;;
62102;SDS011;48077;48.104;11.702;2023-03-17T14:04:04;2.60;;;1.42;;
62102;SDS011;48077;48.104;11.702;2023-03-17T14:06:35;1.92;;;1.10;;
62102;SDS011;48077;48.104;11.702;2023-03-17T14:09:00;3.00;;;1.30;;
62102;SDS011;48077;48.104;11.702;2023-03-17T14:11:36;2.83;;;1.38;;
62102;SDS011;48077;48.104;11.702;2023-03-17T14:19:35;2.67;;;1.20;;
62102;SDS011;48077;48.104;11.702;2023-03-17T14:22:17;1.70;;;0.98;;
62102;SDS011;48077;48.104;11.702;2023-03-17T14:24:42;2.78;;;1.20;;
62102;SDS011;48077;48.104;11.702;2023-03-17T14:27:10;4.43;;;1.60;;
62102;SDS011;48077;48.104;11.702;2023-03-17T14:29:37;2.38;;;1.23;;
62102;SDS011;48077;48.104;11.702;2023-03-17T14:32:10;3.13;;;1.70;;
62102;SDS011;48077;48.104;11.702;2023-03-17T14:37:08;6.43;;;2.15;;
62102;SDS011;48077;48.104;11.702;2023-03-17T14:39:33;3.25;;;1.40;;
62102;SDS011;48077;48.104;11.702;2023-03-17T14:41:57;4.38;;;1.70;;
62102;SDS011;48077;48.104;11.702;2023-03-17T14:44:26;6.57;;;2.78;;
62102;SDS011;48077;48.104;11.702;2023-03-17T14:46:50;5.20;;;2.55;;
62102;SDS011;48077;48.104;11.702;2023-03-17T14:49:23;4.88;;;2.35;;
62102;SDS011;48077;48.104;11.702;2023-03-17T14:51:50;4.05;;;2.53;;
62102;SDS011;48077;48.104;11.702;2023-03-17T14:54:17;11.38;;;4.07;;
62102;SDS011;48077;48.104;11.702;2023-03-17T14:56:44;4.53;;;2.60;;
62102;SDS011;48077;48.104;11.702;2023-03-17T14:59:17;5.10;;;2.78;;
62102;SDS011;48077;48.104;11.702;2023-03-17T15:01:42;5.75;;;2.72;;
62102;SDS011;48077;48.104;11.702;2023-03-17T15:04:16;7.50;;;2.83;;
62102;SDS011;48077;48.104;11.702;2023-03-17T15:06:49;5.32;;;2.67;;
62102;SDS011;48077;48.104;11.702;2023-03-17T15:09:19;6.25;;;2.55;;
62102;SDS011;48077;48.104;11.702;2023-03-17T15:14:36;6.65;;;3.28;;
62102;SDS011;48077;48.104;11.702;2023-03-17T15:17:02;6.90;;;2.80;;
62102;SDS011;48077;48.104;11.702;2023-03-17T15:19:41;7.40;;;2.83;;
62102;SDS011;48077;48.104;11.702;2023-03-17T15:22:24;4.88;;;2.75;;
62102;SDS011;48077;48.104;11.702;2023-03-17T15:25:03;4.93;;;2.40;;
62102;SDS011;48077;48.104;11.702;2023-03-17T15:27:38;4.40;;;2.10;;
62102;SDS011;48077;48.104;11.702;2023-03-17T15:30:02;6.50;;;2.75;;
62102;SDS011;48077;48.104;11.702;2023-03-17T15:32:26;3.85;;;2.20;;
62102;SDS011;48077;48.104;11.702;2023-03-17T15:34:50;4.22;;;2.63;;
62102;SDS011;48077;48.104;11.702;2023-03-17T15:37:20;4.32;;;1.98;;
62102;SDS011;48077;48.104;11.702;2023-03-17T15:39:46;4.43;;;1.88;;
62102;SDS011;48077;48.104;11.702;2023-03-17T15:42:10;3.28;;;1.77;;
62102;SDS011;48077;48.104;11.702;2023-03-17T15:44:33;5.30;;;2.03;;
62102;SDS011;48077;48.104;11.702;2023-03-17T15:46:57;5.55;;;2.10;;
62102;SDS011;48077;48.104;11.702;2023-03-17T15:49:20;5.30;;;1.95;;
62102;SDS011;48077;48.104;11.702;2023-03-17T15:51:46;5.28;;;1.88;;
62102;SDS011;48077;48.104;11.702;2023-03-17T15:54:11;7.78;;;3.03;;
62102;SDS011;48077;48.104;11.702;2023-03-17T15:56:38;5.78;;;2.22;;